sensor_id;sensor_type;location;lat;lon;timestamp;temperature;humidity
22065;DHT22;11197;53.110;8.468;2023-02-13T00:00:09;7.80;99.90
22065;DHT22;11197;53.110;8.468;2023-02-13T00:02:35;7.90;99.90
22065;DHT22;11197;53.110;8.468;2023-02-13T00:05:01;7.90;99.90
22065;DHT22;11197;53.110;8.468;2023-02-13T00:07:26;7.90;99.90
22065;DHT22;11197;53.110;8.468;2023-02-13T00:09:52;7.90;99.90
22065;DHT22;11197;53.110;8.468;2023-02-13T00:12:18;7.90;99.90
22065;DHT22;11197;53.110;8.468;2023-02-13T00:14:44;7.80;99.90
22065;DHT22;11197;53.110;8.468;2023-02-13T00:17:10;7.80;99.90
22065;DHT22;11197;53.110;8.468;2023-02-13T00:19:36;7.80;99.90
22065;DHT22;11197;53.110;8.468;2023-02-13T00:22:01;7.80;99.90
22065;DHT22;11197;53.110;8.468;2023-02-13T00:24:27;7.80;99.90
22065;DHT22;11197;53.110;8.468;2023-02-13T00:26:53;7.80;99.90
22065;DHT22;11197;53.110;8.468;2023-02-13T00:29:19;7.80;99.90
22065;DHT22;11197;53.110;8.468;2023-02-13T00:31:45;7.80;99.90
22065;DHT22;11197;53.110;8.468;2023-02-13T00:34:13;7.80;99.90
22065;DHT22;11197;53.110;8.468;2023-02-13T00:36:39;7.80;99.90
22065;DHT22;11197;53.110;8.468;2023-02-13T00:39:04;7.80;99.90
22065;DHT22;11197;53.110;8.468;2023-02-13T00:41:30;7.80;99.90
22065;DHT22;11197;53.110;8.468;2023-02-13T00:43:56;7.80;99.90
22065;DHT22;11197;53.110;8.468;2023-02-13T00:46:22;7.80;99.90
22065;DHT22;11197;53.110;8.468;2023-02-13T00:48:48;7.70;99.90
22065;DHT22;11197;53.110;8.468;2023-02-13T00:51:14;7.70;99.90
22065;DHT22;11197;53.110;8.468;2023-02-13T00:53:40;7.70;99.90
22065;DHT22;11197;53.110;8.468;2023-02-13T00:56:06;7.70;99.90
22065;DHT22;11197;53.110;8.468;2023-02-13T00:58:32;7.70;99.90
22065;DHT22;11197;53.110;8.468;2023-02-13T01:00:59;7.70;99.90
22065;DHT22;11197;53.110;8.468;2023-02-13T01:03:25;7.70;99.90
22065;DHT22;11197;53.110;8.468;2023-02-13T01:05:55;7.70;99.90
22065;DHT22;11197;53.110;8.468;2023-02-13T01:08:21;7.70;99.90
22065;DHT22;11197;53.110;8.468;2023-02-13T01:10:47;7.70;99.90
22065;DHT22;11197;53.110;8.468;2023-02-13T01:13:17;7.70;99.90
22065;DHT22;11197;53.110;8.468;2023-02-13T01:15:44;7.70;99.90
22065;DHT22;11197;53.110;8.468;2023-02-13T01:18:13;7.70;99.90
22065;DHT22;11197;53.110;8.468;2023-02-13T01:20:40;7.70;99.90
22065;DHT22;11197;53.110;8.468;2023-02-13T01:23:06;7.70;99.90
22065;DHT22;11197;53.110;8.468;2023-02-13T01:25:31;7.70;99.90
22065;DHT22;11197;53.110;8.468;2023-02-13T01:27:57;7.70;99.90
22065;DHT22;11197;53.110;8.468;2023-02-13T01:30:23;7.60;99.90
22065;DHT22;11197;53.110;8.468;2023-02-13T01:32:49;7.60;99.90
22065;DHT22;11197;53.110;8.468;2023-02-13T01:35:15;7.60;99.90
22065;DHT22;11197;53.110;8.468;2023-02-13T01:37:41;7.70;99.90
22065;DHT22;11197;53.110;8.468;2023-02-13T01:40:10;7.60;99.90
22065;DHT22;11197;53.110;8.468;2023-02-13T01:42:36;7.60;99.90
22065;DHT22;11197;53.110;8.468;2023-02-13T01:45:19;7.60;99.90
22065;DHT22;11197;53.110;8.468;2023-02-13T01:47:54;7.60;99.90
22065;DHT22;11197;53.110;8.468;2023-02-13T01:55:30;7.60;99.90
22065;DHT22;11197;53.110;8.468;2023-02-13T01:58:01;7.60;99.90
22065;DHT22;11197;53.110;8.468;2023-02-13T02:00:29;7.60;99.90
22065;DHT22;11197;53.110;8.468;2023-02-13T02:03:10;7.60;99.90
22065;DHT22;11197;53.110;8.468;2023-02-13T02:05:38;7.60;99.90
22065;DHT22;11197;53.110;8.468;2023-02-13T02:08:07;7.60;99.90
22065;DHT22;11197;53.110;8.468;2023-02-13T02:10:35;7.60;99.90
22065;DHT22;11197;53.110;8.468;2023-02-13T02:13:13;7.60;99.90
22065;DHT22;11197;53.110;8.468;2023-02-13T02:15:41;7.60;99.90
22065;DHT22;11197;53.110;8.468;2023-02-13T02:18:14;7.60;99.90
22065;DHT22;11197;53.110;8.468;2023-02-13T02:45:27;7.50;99.90
22065;DHT22;11197;53.110;8.468;2023-02-13T02:51:23;7.50;99.90
22065;DHT22;11197;53.110;8.468;2023-02-13T02:54:07;7.50;99.90
22065;DHT22;11197;53.110;8.468;2023-02-13T02:57:02;7.50;99.90
22065;DHT22;11197;53.110;8.468;2023-02-13T02:59:30;7.50;99.90
22065;DHT22;11197;53.110;8.468;2023-02-13T03:02:17;7.50;99.90
22065;DHT22;11197;53.110;8.468;2023-02-13T03:05:02;7.50;99.90
22065;DHT22;11197;53.110;8.468;2023-02-13T03:07:48;7.50;99.90
22065;DHT22;11197;53.110;8.468;2023-02-13T03:10:26;7.50;99.90
22065;DHT22;11197;53.110;8.468;2023-02-13T03:13:16;7.50;99.90
22065;DHT22;11197;53.110;8.468;2023-02-13T03:15:57;7.50;99.90
22065;DHT22;11197;53.110;8.468;2023-02-13T03:18:46;7.50;99.90
22065;DHT22;11197;53.110;8.468;2023-02-13T03:42:33;7.50;99.90
22065;DHT22;11197;53.110;8.468;2023-02-13T03:47:50;7.50;99.90
22065;DHT22;11197;53.110;8.468;2023-02-13T03:50:18;7.50;99.90
22065;DHT22;11197;53.110;8.468;2023-02-13T03:55:18;7.50;99.90
22065;DHT22;11197;53.110;8.468;2023-02-13T03:58:13;7.40;99.90
22065;DHT22;11197;53.110;8.468;2023-02-13T04:01:01;7.50;99.90
22065;DHT22;11197;53.110;8.468;2023-02-13T04:06:22;7.50;99.90
22065;DHT22;11197;53.110;8.468;2023-02-13T04:08:48;7.40;99.90
22065;DHT22;11197;53.110;8.468;2023-02-13T04:14:12;7.40;99.90
22065;DHT22;11197;53.110;8.468;2023-02-13T04:16:52;7.40;99.90
22065;DHT22;11197;53.110;8.468;2023-02-13T04:19:20;7.40;99.90
22065;DHT22;11197;53.110;8.468;2023-02-13T04:21:50;7.40;99.90
22065;DHT22;11197;53.110;8.468;2023-02-13T04:24:20;7.40;99.90
22065;DHT22;11197;53.110;8.468;2023-02-13T04:26:46;7.40;99.90
22065;DHT22;11197;53.110;8.468;2023-02-13T04:29:12;7.40;99.90
22065;DHT22;11197;53.110;8.468;2023-02-13T04:31:37;7.40;99.90
22065;DHT22;11197;53.110;8.468;2023-02-13T04:34:04;7.40;99.90
22065;DHT22;11197;53.110;8.468;2023-02-13T04:36:30;7.40;99.90
22065;DHT22;11197;53.110;8.468;2023-02-13T04:38:56;7.40;99.90
22065;DHT22;11197;53.110;8.468;2023-02-13T04:41:22;7.40;99.90
22065;DHT22;11197;53.110;8.468;2023-02-13T04:43:48;7.40;99.90
22065;DHT22;11197;53.110;8.468;2023-02-13T04:46:14;7.40;99.90
22065;DHT22;11197;53.110;8.468;2023-02-13T04:48:39;7.40;99.90
22065;DHT22;11197;53.110;8.468;2023-02-13T04:51:05;7.40;99.90
22065;DHT22;11197;53.110;8.468;2023-02-13T04:53:31;7.40;99.90
22065;DHT22;11197;53.110;8.468;2023-02-13T04:55:57;7.40;99.90
22065;DHT22;11197;53.110;8.468;2023-02-13T04:58:22;7.40;99.90
22065;DHT22;11197;53.110;8.468;2023-02-13T05:00:48;7.40;99.90
22065;DHT22;11197;53.110;8.468;2023-02-13T05:03:17;7.40;99.90
22065;DHT22;11197;53.110;8.468;2023-02-13T05:05:43;7.40;99.90
22065;DHT22;11197;53.110;8.468;2023-02-13T05:08:09;7.40;99.90
22065;DHT22;11197;53.110;8.468;2023-02-13T05:10:35;7.40;99.90
22065;DHT22;11197;53.110;8.468;2023-02-13T05:13:01;7.40;99.90
22065;DHT22;11197;53.110;8.468;2023-02-13T05:15:27;7.40;99.90
22065;DHT22;11197;53.110;8.468;2023-02-13T05:17:53;7.40;99.90
22065;DHT22;11197;53.110;8.468;2023-02-13T05:20:19;7.30;99.90
22065;DHT22;11197;53.110;8.468;2023-02-13T05:22:50;7.40;99.90
22065;DHT22;11197;53.110;8.468;2023-02-13T05:25:36;7.40;99.90
22065;DHT22;11197;53.110;8.468;2023-02-13T05:28:02;7.40;99.90
22065;DHT22;11197;53.110;8.468;2023-02-13T05:30:28;7.40;99.90
22065;DHT22;11197;53.110;8.468;2023-02-13T05:32:54;7.30;99.90
22065;DHT22;11197;53.110;8.468;2023-02-13T05:35:21;7.30;99.90
22065;DHT22;11197;53.110;8.468;2023-02-13T05:37:47;7.30;99.90
22065;DHT22;11197;53.110;8.468;2023-02-13T05:40:14;7.30;99.90
22065;DHT22;11197;53.110;8.468;2023-02-13T05:42:40;7.40;99.90
22065;DHT22;11197;53.110;8.468;2023-02-13T05:45:08;7.30;99.90
22065;DHT22;11197;53.110;8.468;2023-02-13T05:47:34;7.30;99.90
22065;DHT22;11197;53.110;8.468;2023-02-13T05:50:00;7.30;99.90
22065;DHT22;11197;53.110;8.468;2023-02-13T05:52:26;7.30;99.90
22065;DHT22;11197;53.110;8.468;2023-02-13T05:54:52;7.30;99.90
22065;DHT22;11197;53.110;8.468;2023-02-13T05:57:18;7.30;99.90
22065;DHT22;11197;53.110;8.468;2023-02-13T05:59:43;7.30;99.90
22065;DHT22;11197;53.110;8.468;2023-02-13T06:02:10;7.30;99.90
22065;DHT22;11197;53.110;8.468;2023-02-13T06:04:36;7.30;99.90
22065;DHT22;11197;53.110;8.468;2023-02-13T06:07:02;7.30;99.90
22065;DHT22;11197;53.110;8.468;2023-02-13T06:09:28;7.40;99.90
22065;DHT22;11197;53.110;8.468;2023-02-13T06:11:53;7.30;99.90
22065;DHT22;11197;53.110;8.468;2023-02-13T06:14:19;7.30;99.90
22065;DHT22;11197;53.110;8.468;2023-02-13T06:16:45;7.30;99.90
22065;DHT22;11197;53.110;8.468;2023-02-13T06:19:11;7.30;99.90
22065;DHT22;11197;53.110;8.468;2023-02-13T06:21:37;7.30;99.90
22065;DHT22;11197;53.110;8.468;2023-02-13T06:24:04;7.30;99.90
22065;DHT22;11197;53.110;8.468;2023-02-13T06:26:30;7.30;99.90
22065;DHT22;11197;53.110;8.468;2023-02-13T06:28:56;7.30;99.90
22065;DHT22;11197;53.110;8.468;2023-02-13T06:31:22;7.30;99.90
22065;DHT22;11197;53.110;8.468;2023-02-13T06:33:47;7.30;99.90
22065;DHT22;11197;53.110;8.468;2023-02-13T06:36:13;7.30;99.90
22065;DHT22;11197;53.110;8.468;2023-02-13T06:38:39;7.30;99.90
22065;DHT22;11197;53.110;8.468;2023-02-13T06:41:05;7.30;99.90
22065;DHT22;11197;53.110;8.468;2023-02-13T06:43:31;7.30;99.90
22065;DHT22;11197;53.110;8.468;2023-02-13T06:45:57;7.30;99.90
22065;DHT22;11197;53.110;8.468;2023-02-13T06:48:24;7.30;99.90
22065;DHT22;11197;53.110;8.468;2023-02-13T06:50:50;7.30;99.90
22065;DHT22;11197;53.110;8.468;2023-02-13T06:53:18;7.30;99.90
22065;DHT22;11197;53.110;8.468;2023-02-13T06:55:51;7.30;99.90
22065;DHT22;11197;53.110;8.468;2023-02-13T06:58:18;7.30;99.90
22065;DHT22;11197;53.110;8.468;2023-02-13T07:00:44;7.30;99.90
22065;DHT22;11197;53.110;8.468;2023-02-13T07:03:10;7.30;99.90
22065;DHT22;11197;53.110;8.468;2023-02-13T07:05:39;7.30;99.90
22065;DHT22;11197;53.110;8.468;2023-02-13T07:08:06;7.30;99.90
22065;DHT22;11197;53.110;8.468;2023-02-13T07:10:32;7.30;99.90
22065;DHT22;11197;53.110;8.468;2023-02-13T07:12:58;7.30;99.90
22065;DHT22;11197;53.110;8.468;2023-02-13T07:15:24;7.30;99.90
22065;DHT22;11197;53.110;8.468;2023-02-13T07:17:59;7.30;99.90
22065;DHT22;11197;53.110;8.468;2023-02-13T07:20:25;7.20;99.90
22065;DHT22;11197;53.110;8.468;2023-02-13T07:22:51;7.30;99.90
22065;DHT22;11197;53.110;8.468;2023-02-13T07:25:18;7.30;99.90
22065;DHT22;11197;53.110;8.468;2023-02-13T07:27:44;7.30;99.90
22065;DHT22;11197;53.110;8.468;2023-02-13T07:30:11;7.30;99.90
22065;DHT22;11197;53.110;8.468;2023-02-13T07:32:36;7.20;99.90
22065;DHT22;11197;53.110;8.468;2023-02-13T07:35:02;7.30;99.90
22065;DHT22;11197;53.110;8.468;2023-02-13T07:37:30;7.20;99.90
22065;DHT22;11197;53.110;8.468;2023-02-13T07:39:56;7.30;99.90
22065;DHT22;11197;53.110;8.468;2023-02-13T07:42:22;7.20;99.90
22065;DHT22;11197;53.110;8.468;2023-02-13T07:44:48;7.30;99.90
22065;DHT22;11197;53.110;8.468;2023-02-13T07:47:13;7.30;99.90
22065;DHT22;11197;53.110;8.468;2023-02-13T07:49:39;7.20;99.90
22065;DHT22;11197;53.110;8.468;2023-02-13T07:52:05;7.20;99.90
22065;DHT22;11197;53.110;8.468;2023-02-13T07:54:31;7.20;99.90
22065;DHT22;11197;53.110;8.468;2023-02-13T07:56:58;7.30;99.90
22065;DHT22;11197;53.110;8.468;2023-02-13T07:59:24;7.20;99.90
22065;DHT22;11197;53.110;8.468;2023-02-13T08:01:50;7.30;99.90
22065;DHT22;11197;53.110;8.468;2023-02-13T08:04:16;7.30;99.90
22065;DHT22;11197;53.110;8.468;2023-02-13T08:06:42;7.30;99.90
22065;DHT22;11197;53.110;8.468;2023-02-13T08:09:17;7.30;99.90
22065;DHT22;11197;53.110;8.468;2023-02-13T08:12:03;7.30;99.90
22065;DHT22;11197;53.110;8.468;2023-02-13T08:14:29;7.30;99.90
22065;DHT22;11197;53.110;8.468;2023-02-13T08:16:57;7.30;99.90
22065;DHT22;11197;53.110;8.468;2023-02-13T08:19:22;7.30;99.90
22065;DHT22;11197;53.110;8.468;2023-02-13T08:21:48;7.20;99.90
22065;DHT22;11197;53.110;8.468;2023-02-13T08:24:14;7.20;99.90
22065;DHT22;11197;53.110;8.468;2023-02-13T08:26:40;7.20;99.90
22065;DHT22;11197;53.110;8.468;2023-02-13T08:29:06;7.20;99.90
22065;DHT22;11197;53.110;8.468;2023-02-13T08:31:32;7.30;99.90
22065;DHT22;11197;53.110;8.468;2023-02-13T08:33:58;7.30;99.90
22065;DHT22;11197;53.110;8.468;2023-02-13T08:36:24;7.30;99.90
22065;DHT22;11197;53.110;8.468;2023-02-13T08:38:50;7.20;99.90
22065;DHT22;11197;53.110;8.468;2023-02-13T08:41:16;7.20;99.90
22065;DHT22;11197;53.110;8.468;2023-02-13T08:43:49;7.30;99.90
22065;DHT22;11197;53.110;8.468;2023-02-13T08:46:16;7.30;99.90
22065;DHT22;11197;53.110;8.468;2023-02-13T08:48:43;7.20;99.90
22065;DHT22;11197;53.110;8.468;2023-02-13T08:51:10;7.30;99.90
22065;DHT22;11197;53.110;8.468;2023-02-13T08:53:37;7.30;99.90
22065;DHT22;11197;53.110;8.468;2023-02-13T08:56:03;7.20;99.90
22065;DHT22;11197;53.110;8.468;2023-02-13T08:58:29;7.30;99.90
22065;DHT22;11197;53.110;8.468;2023-02-13T09:00:55;7.30;99.90
22065;DHT22;11197;53.110;8.468;2023-02-13T09:03:21;7.30;99.90
22065;DHT22;11197;53.110;8.468;2023-02-13T09:05:47;7.30;99.90
22065;DHT22;11197;53.110;8.468;2023-02-13T09:08:13;7.30;99.90
22065;DHT22;11197;53.110;8.468;2023-02-13T09:10:40;7.30;99.90
22065;DHT22;11197;53.110;8.468;2023-02-13T09:13:08;7.30;99.90
22065;DHT22;11197;53.110;8.468;2023-02-13T09:15:37;7.30;99.90
22065;DHT22;11197;53.110;8.468;2023-02-13T09:18:04;7.30;99.90
22065;DHT22;11197;53.110;8.468;2023-02-13T09:20:30;7.40;99.90
22065;DHT22;11197;53.110;8.468;2023-02-13T09:22:56;7.40;99.90
22065;DHT22;11197;53.110;8.468;2023-02-13T09:25:22;7.40;99.90
22065;DHT22;11197;53.110;8.468;2023-02-13T09:27:48;7.40;99.90
22065;DHT22;11197;53.110;8.468;2023-02-13T09:30:13;7.40;99.90
22065;DHT22;11197;53.110;8.468;2023-02-13T09:32:48;7.40;99.90
22065;DHT22;11197;53.110;8.468;2023-02-13T09:35:14;7.40;99.90
22065;DHT22;11197;53.110;8.468;2023-02-13T09:37:40;7.40;99.90
22065;DHT22;11197;53.110;8.468;2023-02-13T09:40:24;7.40;99.90
22065;DHT22;11197;53.110;8.468;2023-02-13T09:42:51;7.40;99.90
22065;DHT22;11197;53.110;8.468;2023-02-13T09:45:21;7.50;99.90
22065;DHT22;11197;53.110;8.468;2023-02-13T09:47:47;7.50;99.90
22065;DHT22;11197;53.110;8.468;2023-02-13T09:50:23;7.50;99.90
22065;DHT22;11197;53.110;8.468;2023-02-13T09:52:52;7.50;99.90
22065;DHT22;11197;53.110;8.468;2023-02-13T10:00:59;7.50;99.90
22065;DHT22;11197;53.110;8.468;2023-02-13T10:06:22;7.60;99.90
22065;DHT22;11197;53.110;8.468;2023-02-13T10:11:50;7.60;99.90
22065;DHT22;11197;53.110;8.468;2023-02-13T10:17:12;7.60;99.90
22065;DHT22;11197;53.110;8.468;2023-02-13T10:22:41;7.60;99.90
22065;DHT22;11197;53.110;8.468;2023-02-13T10:25:34;7.60;99.90
22065;DHT22;11197;53.110;8.468;2023-02-13T10:28:10;7.70;99.90
22065;DHT22;11197;53.110;8.468;2023-02-13T10:30:52;7.70;99.90
22065;DHT22;11197;53.110;8.468;2023-02-13T10:36:23;7.70;99.90
22065;DHT22;11197;53.110;8.468;2023-02-13T10:41:52;7.80;99.90
22065;DHT22;11197;53.110;8.468;2023-02-13T10:55:30;7.80;99.90
22065;DHT22;11197;53.110;8.468;2023-02-13T10:58:41;7.80;99.90
22065;DHT22;11197;53.110;8.468;2023-02-13T11:01:36;7.80;99.90
22065;DHT22;11197;53.110;8.468;2023-02-13T11:04:07;7.80;99.90
22065;DHT22;11197;53.110;8.468;2023-02-13T11:06:35;7.80;99.90
22065;DHT22;11197;53.110;8.468;2023-02-13T11:09:04;7.90;99.90
22065;DHT22;11197;53.110;8.468;2023-02-13T11:11:41;7.90;99.90
22065;DHT22;11197;53.110;8.468;2023-02-13T11:14:11;7.90;99.90
22065;DHT22;11197;53.110;8.468;2023-02-13T11:21:46;7.90;99.90
22065;DHT22;11197;53.110;8.468;2023-02-13T11:24:22;7.90;99.90
22065;DHT22;11197;53.110;8.468;2023-02-13T11:26:59;7.90;99.90
22065;DHT22;11197;53.110;8.468;2023-02-13T11:29:29;7.90;99.90
22065;DHT22;11197;53.110;8.468;2023-02-13T11:34:32;8.00;99.90
22065;DHT22;11197;53.110;8.468;2023-02-13T11:39:44;8.00;99.90
22065;DHT22;11197;53.110;8.468;2023-02-13T11:44:42;8.00;99.90
22065;DHT22;11197;53.110;8.468;2023-02-13T11:47:09;8.00;99.90
22065;DHT22;11197;53.110;8.468;2023-02-13T11:49:44;8.00;99.90
22065;DHT22;11197;53.110;8.468;2023-02-13T11:52:26;8.10;99.90
22065;DHT22;11197;53.110;8.468;2023-02-13T11:55:02;8.10;99.90
22065;DHT22;11197;53.110;8.468;2023-02-13T11:57:35;8.10;99.90
22065;DHT22;11197;53.110;8.468;2023-02-13T12:00:26;8.10;99.90
22065;DHT22;11197;53.110;8.468;2023-02-13T12:02:52;8.20;99.90
22065;DHT22;11197;53.110;8.468;2023-02-13T12:05:22;8.20;99.90
22065;DHT22;11197;53.110;8.468;2023-02-13T12:07:49;8.10;99.90
22065;DHT22;11197;53.110;8.468;2023-02-13T12:10:19;8.20;99.90
22065;DHT22;11197;53.110;8.468;2023-02-13T12:12:55;8.20;99.90
22065;DHT22;11197;53.110;8.468;2023-02-13T12:15:25;8.20;99.90
22065;DHT22;11197;53.110;8.468;2023-02-13T12:31:39;8.30;99.90
22065;DHT22;11197;53.110;8.468;2023-02-13T12:34:49;8.20;99.90
22065;DHT22;11197;53.110;8.468;2023-02-13T12:46:03;8.40;99.90
22065;DHT22;11197;53.110;8.468;2023-02-13T12:48:35;8.40;99.90
22065;DHT22;11197;53.110;8.468;2023-02-13T13:23:39;8.50;99.90
22065;DHT22;11197;53.110;8.468;2023-02-13T13:26:40;8.50;99.90
22065;DHT22;11197;53.110;8.468;2023-02-13T13:29:14;8.50;99.90
22065;DHT22;11197;53.110;8.468;2023-02-13T13:31:42;8.50;99.90
22065;DHT22;11197;53.110;8.468;2023-02-13T13:34:15;8.50;99.90
22065;DHT22;11197;53.110;8.468;2023-02-13T13:36:53;8.50;99.90
22065;DHT22;11197;53.110;8.468;2023-02-13T13:42:30;8.50;99.90
22065;DHT22;11197;53.110;8.468;2023-02-13T13:45:18;8.50;99.90
22065;DHT22;11197;53.110;8.468;2023-02-13T13:48:14;8.50;99.90
22065;DHT22;11197;53.110;8.468;2023-02-13T13:50:42;8.50;99.90
22065;DHT22;11197;53.110;8.468;2023-02-13T13:53:13;8.50;99.90
22065;DHT22;11197;53.110;8.468;2023-02-13T13:58:42;8.50;99.90
22065;DHT22;11197;53.110;8.468;2023-02-13T14:01:24;8.50;99.90
22065;DHT22;11197;53.110;8.468;2023-02-13T14:09:38;8.60;99.90
22065;DHT22;11197;53.110;8.468;2023-02-13T14:14:49;8.80;99.90
22065;DHT22;11197;53.110;8.468;2023-02-13T14:22:54;8.70;99.90
22065;DHT22;11197;53.110;8.468;2023-02-13T14:25:25;8.70;99.90
22065;DHT22;11197;53.110;8.468;2023-02-13T14:28:00;8.70;99.90
22065;DHT22;11197;53.110;8.468;2023-02-13T14:32:53;8.60;99.90
22065;DHT22;11197;53.110;8.468;2023-02-13T14:35:26;8.60;99.90
22065;DHT22;11197;53.110;8.468;2023-02-13T14:38:00;8.60;99.90
22065;DHT22;11197;53.110;8.468;2023-02-13T14:40:45;8.70;99.90
22065;DHT22;11197;53.110;8.468;2023-02-13T14:49:01;8.70;99.90
22065;DHT22;11197;53.110;8.468;2023-02-13T14:51:37;8.70;99.90
22065;DHT22;11197;53.110;8.468;2023-02-13T14:54:14;8.70;99.90
22065;DHT22;11197;53.110;8.468;2023-02-13T14:56:44;8.70;99.90
22065;DHT22;11197;53.110;8.468;2023-02-13T14:59:23;8.70;99.90
22065;DHT22;11197;53.110;8.468;2023-02-13T15:02:13;8.70;99.90
22065;DHT22;11197;53.110;8.468;2023-02-13T15:04:41;8.70;99.90
22065;DHT22;11197;53.110;8.468;2023-02-13T15:07:18;8.60;99.90
22065;DHT22;11197;53.110;8.468;2023-02-13T15:10:03;8.60;99.90
22065;DHT22;11197;53.110;8.468;2023-02-13T15:12:34;8.60;99.90
22065;DHT22;11197;53.110;8.468;2023-02-13T15:15:16;8.60;99.90
22065;DHT22;11197;53.110;8.468;2023-02-13T15:17:48;8.60;99.90
22065;DHT22;11197;53.110;8.468;2023-02-13T15:20:22;8.60;99.90
22065;DHT22;11197;53.110;8.468;2023-02-13T15:22:49;8.60;99.90
22065;DHT22;11197;53.110;8.468;2023-02-13T15:27:56;8.50;99.90
22065;DHT22;11197;53.110;8.468;2023-02-13T15:30:25;8.50;99.90
22065;DHT22;11197;53.110;8.468;2023-02-13T15:35:23;8.50;99.90
22065;DHT22;11197;53.110;8.468;2023-02-13T15:37:49;8.50;99.90
22065;DHT22;11197;53.110;8.468;2023-02-13T15:40:36;8.50;99.90
22065;DHT22;11197;53.110;8.468;2023-02-13T15:45:55;8.50;99.90
22065;DHT22;11197;53.110;8.468;2023-02-13T15:48:23;8.40;99.90
22065;DHT22;11197;53.110;8.468;2023-02-13T15:50:50;8.50;99.90
22065;DHT22;11197;53.110;8.468;2023-02-13T15:53:17;8.40;99.90
22065;DHT22;11197;53.110;8.468;2023-02-13T15:55:58;8.40;99.90
22065;DHT22;11197;53.110;8.468;2023-02-13T15:58:28;8.40;99.90
22065;DHT22;11197;53.110;8.468;2023-02-13T16:00:55;8.40;99.90
22065;DHT22;11197;53.110;8.468;2023-02-13T16:03:24;8.40;99.90
22065;DHT22;11197;53.110;8.468;2023-02-13T16:05:51;8.40;99.90
22065;DHT22;11197;53.110;8.468;2023-02-13T16:13:55;8.40;99.90
22065;DHT22;11197;53.110;8.468;2023-02-13T16:16:22;8.40;99.90
22065;DHT22;11197;53.110;8.468;2023-02-13T16:18:49;8.40;99.90
22065;DHT22;11197;53.110;8.468;2023-02-13T16:21:15;8.40;99.90
22065;DHT22;11197;53.110;8.468;2023-02-13T16:23:45;8.40;99.90
22065;DHT22;11197;53.110;8.468;2023-02-13T16:26:14;8.30;99.90
22065;DHT22;11197;53.110;8.468;2023-02-13T16:28:45;8.30;99.90
22065;DHT22;11197;53.110;8.468;2023-02-13T16:31:14;8.30;99.90
22065;DHT22;11197;53.110;8.468;2023-02-13T16:33:41;8.30;99.90
22065;DHT22;11197;53.110;8.468;2023-02-13T16:38:47;8.20;99.90
22065;DHT22;11197;53.110;8.468;2023-02-13T16:46:25;8.20;99.90
22065;DHT22;11197;53.110;8.468;2023-02-13T16:51:35;8.20;99.90
22065;DHT22;11197;53.110;8.468;2023-02-13T16:54:33;8.20;99.90
22065;DHT22;11197;53.110;8.468;2023-02-13T17:05:26;8.20;99.90
22065;DHT22;11197;53.110;8.468;2023-02-13T17:07:41;8.10;99.90
22065;DHT22;11197;53.110;8.468;2023-02-13T17:12:44;8.20;99.90
22065;DHT22;11197;53.110;8.468;2023-02-13T17:15:12;8.20;99.90
22065;DHT22;11197;53.110;8.468;2023-02-13T17:17:39;8.20;99.90
22065;DHT22;11197;53.110;8.468;2023-02-13T17:20:07;8.20;99.90
22065;DHT22;11197;53.110;8.468;2023-02-13T17:22:56;8.10;99.90
22065;DHT22;11197;53.110;8.468;2023-02-13T17:25:27;8.10;99.90
22065;DHT22;11197;53.110;8.468;2023-02-13T17:28:00;8.10;99.90
22065;DHT22;11197;53.110;8.468;2023-02-13T17:30:30;8.10;99.90
22065;DHT22;11197;53.110;8.468;2023-02-13T17:33:03;8.10;99.90
22065;DHT22;11197;53.110;8.468;2023-02-13T17:35:29;8.10;99.90
22065;DHT22;11197;53.110;8.468;2023-02-13T17:37:56;8.10;99.90
22065;DHT22;11197;53.110;8.468;2023-02-13T17:40:23;8.10;99.90
22065;DHT22;11197;53.110;8.468;2023-02-13T17:42:52;8.00;99.90
22065;DHT22;11197;53.110;8.468;2023-02-13T17:45:21;8.00;99.90
22065;DHT22;11197;53.110;8.468;2023-02-13T17:47:47;8.00;99.90
22065;DHT22;11197;53.110;8.468;2023-02-13T17:50:14;8.00;99.90
22065;DHT22;11197;53.110;8.468;2023-02-13T17:52:42;8.00;99.90
22065;DHT22;11197;53.110;8.468;2023-02-13T17:55:26;8.00;99.90
22065;DHT22;11197;53.110;8.468;2023-02-13T17:57:53;8.00;99.90
22065;DHT22;11197;53.110;8.468;2023-02-13T18:00:22;7.90;99.90
22065;DHT22;11197;53.110;8.468;2023-02-13T18:02:49;8.00;99.90
22065;DHT22;11197;53.110;8.468;2023-02-13T18:05:17;7.90;99.90
22065;DHT22;11197;53.110;8.468;2023-02-13T18:07:44;7.90;99.90
22065;DHT22;11197;53.110;8.468;2023-02-13T18:10:22;7.90;99.90
22065;DHT22;11197;53.110;8.468;2023-02-13T18:12:49;7.90;99.90
22065;DHT22;11197;53.110;8.468;2023-02-13T18:15:16;7.90;99.90
22065;DHT22;11197;53.110;8.468;2023-02-13T18:17:42;7.90;99.90
22065;DHT22;11197;53.110;8.468;2023-02-13T18:20:11;7.90;99.90
22065;DHT22;11197;53.110;8.468;2023-02-13T18:22:38;7.90;99.90
22065;DHT22;11197;53.110;8.468;2023-02-13T18:25:05;7.90;99.90
22065;DHT22;11197;53.110;8.468;2023-02-13T18:27:31;7.90;99.90
22065;DHT22;11197;53.110;8.468;2023-02-13T18:29:57;7.90;99.90
22065;DHT22;11197;53.110;8.468;2023-02-13T18:32:23;7.90;99.90
22065;DHT22;11197;53.110;8.468;2023-02-13T18:34:50;7.90;99.90
22065;DHT22;11197;53.110;8.468;2023-02-13T18:37:17;7.90;99.90
22065;DHT22;11197;53.110;8.468;2023-02-13T18:39:43;7.90;99.90
22065;DHT22;11197;53.110;8.468;2023-02-13T18:42:10;7.80;99.90
22065;DHT22;11197;53.110;8.468;2023-02-13T18:44:38;7.80;99.90
22065;DHT22;11197;53.110;8.468;2023-02-13T18:47:04;7.80;99.90
22065;DHT22;11197;53.110;8.468;2023-02-13T18:49:30;7.80;99.90
22065;DHT22;11197;53.110;8.468;2023-02-13T18:51:56;7.80;99.90
22065;DHT22;11197;53.110;8.468;2023-02-13T18:54:23;7.80;99.90
22065;DHT22;11197;53.110;8.468;2023-02-13T18:56:49;7.80;99.90
22065;DHT22;11197;53.110;8.468;2023-02-13T18:59:15;7.80;99.90
22065;DHT22;11197;53.110;8.468;2023-02-13T19:01:43;7.70;99.90
22065;DHT22;11197;53.110;8.468;2023-02-13T19:04:10;7.70;99.90
22065;DHT22;11197;53.110;8.468;2023-02-13T19:06:38;7.80;99.90
22065;DHT22;11197;53.110;8.468;2023-02-13T19:09:05;7.80;99.90
22065;DHT22;11197;53.110;8.468;2023-02-13T19:11:31;7.70;99.90
22065;DHT22;11197;53.110;8.468;2023-02-13T19:13:59;7.70;99.90
22065;DHT22;11197;53.110;8.468;2023-02-13T19:16:28;7.70;99.90
22065;DHT22;11197;53.110;8.468;2023-02-13T19:18:56;7.70;99.90
22065;DHT22;11197;53.110;8.468;2023-02-13T19:21:25;7.60;99.90
22065;DHT22;11197;53.110;8.468;2023-02-13T19:23:52;7.60;99.90
22065;DHT22;11197;53.110;8.468;2023-02-13T19:26:20;7.60;99.90
22065;DHT22;11197;53.110;8.468;2023-02-13T19:28:47;7.60;99.90
22065;DHT22;11197;53.110;8.468;2023-02-13T19:31:16;7.50;99.90
22065;DHT22;11197;53.110;8.468;2023-02-13T19:33:43;7.50;99.90
22065;DHT22;11197;53.110;8.468;2023-02-13T19:36:12;7.50;99.90
22065;DHT22;11197;53.110;8.468;2023-02-13T19:38:39;7.50;99.90
22065;DHT22;11197;53.110;8.468;2023-02-13T19:41:08;7.40;99.90
22065;DHT22;11197;53.110;8.468;2023-02-13T19:43:36;7.40;99.90
22065;DHT22;11197;53.110;8.468;2023-02-13T19:46:04;7.40;99.90
22065;DHT22;11197;53.110;8.468;2023-02-13T19:48:30;7.30;99.90
22065;DHT22;11197;53.110;8.468;2023-02-13T19:50:57;7.30;99.90